Time;durP1;ratioP1;P1;durP2;ratioP2;P2;SDS_P1;SDS_P2;PMS_P1;PMS_P2;Temp;Humidity;BMP_temperature;BMP_pressure;BME280_temperature;BME280_humidity;BME280_pressure;Samples;Min_cycle;Max_cycle;Signal;HPM_P1;HPM_P2
2021/11/12 00:02:14;;;;;;;34.08;22.60;;;8.80;99.90;;;;;;4967589;28;20115;-80
2021/11/12 00:13:44;;;;;;;39.20;21.58;;;8.30;99.90;;;;;;4976115;28;20058;-80
2021/11/12 00:16:12;;;;;;;34.45;21.60;;;8.30;99.90;;;;;;4976211;28;20059;-80
2021/11/12 00:18:39;;;;;;;37.10;20.85;;;8.20;99.90;;;;;;4976271;28;20398;-81
2021/11/12 00:21:07;;;;;;;35.55;20.58;;;8.00;99.90;;;;;;4969898;28;20126;-77
2021/11/12 00:23:38;;;;;;;34.92;21.38;;;8.30;99.90;;;;;;4975420;28;20462;-79
2021/11/12 00:26:05;;;;;;;;;;;8.50;99.90;;;;;;4975989;28;20062;-81
2021/11/12 00:28:38;;;;;;;35.45;20.08;;;8.30;99.90;;;;;;4975207;28;20023;-82
2021/11/12 00:39:12;;;;;;;31.48;18.52;;;8.20;99.90;;;;;;4975784;28;20121;-81
2021/11/12 00:41:43;;;;;;;25.92;17.13;;;8.30;99.90;;;;;;4976049;28;20065;-80
2021/11/12 00:49:15;;;;;;;28.67;17.40;;;8.10;99.90;;;;;;4975927;28;20459;-78
2021/11/12 00:51:49;;;;;;;30.15;18.25;;;8.10;99.90;;;;;;4975559;28;20092;-79
2021/11/12 00:54:18;;;;;;;30.15;18.23;;;8.10;99.90;;;;;;4975657;28;20122;-80
2021/11/12 00:56:50;;;;;;;32.50;17.95;;;8.10;99.90;;;;;;4975774;28;20639;-81
2021/11/12 00:59:18;;;;;;;28.40;18.35;;;8.10;99.90;;;;;;4958280;28;20145;-80
2021/11/12 01:01:47;;;;;;;33.03;19.48;;;8.20;99.90;;;;;;4975484;28;20042;-81
2021/11/12 01:04:18;;;;;;;33.92;20.23;;;8.30;99.90;;;;;;4975614;28;20054;-84
2021/11/12 01:06:46;;;;;;;28.42;18.95;;;8.40;99.90;;;;;;4975463;28;20050;-82
2021/11/12 01:09:16;;;;;;;29.38;18.17;;;8.40;99.90;;;;;;4958250;28;20413;-80
2021/11/12 01:11:46;;;;;;;32.92;19.33;;;8.30;99.90;;;;;;4957280;28;20131;-84
2021/11/12 01:14:19;;;;;;;30.45;19.17;;;8.00;99.90;;;;;;4942568;28;20066;-85
2021/11/12 01:16:47;;;;;;;30.75;20.42;;;8.00;99.90;;;;;;4958462;28;20078;-85
2021/11/12 01:19:14;;;;;;;30.27;20.10;;;8.00;99.90;;;;;;4975212;28;20053;-79
2021/11/12 01:21:42;;;;;;;30.98;18.38;;;8.00;99.90;;;;;;4975083;28;20414;-83
2021/11/12 01:24:10;;;;;;;28.13;19.38;;;8.00;99.90;;;;;;4975545;28;20063;-80
2021/11/12 01:26:38;;;;;;;33.42;20.08;;;7.80;99.90;;;;;;4973817;28;20053;-80
2021/11/12 01:29:05;;;;;;;28.08;18.33;;;7.80;99.90;;;;;;4957777;28;20410;-82
2021/11/12 01:31:33;;;;;;;29.88;19.63;;;7.90;99.90;;;;;;4975099;28;20038;-82
2021/11/12 01:34:10;;;;;;;29.92;18.98;;;7.70;99.90;;;;;;4974033;28;20051;-82
2021/11/12 01:36:44;;;;;;;33.63;19.77;;;7.70;99.90;;;;;;4974495;28;20093;-79
2021/11/12 01:39:19;;;;;;;34.75;19.45;;;7.80;99.90;;;;;;4957849;28;20145;-83
2021/11/12 01:41:52;;;;;;;31.50;17.95;;;7.70;99.90;;;;;;4957967;28;20042;-80
2021/11/12 01:44:30;;;;;;;32.83;19.70;;;7.80;99.90;;;;;;4973896;28;20391;-82
2021/11/12 01:49:35;;;;;;;36.22;20.13;;;7.70;99.90;;;;;;4957632;28;20053;-79
2021/11/12 01:55:40;;;;;;;32.83;19.52;;;7.70;99.90;;;;;;4957116;28;20080;-82
2021/11/12 02:00:30;;;;;;;30.92;18.63;;;7.60;99.90;;;;;;4973424;28;20059;-79
2021/11/12 02:02:59;;;;;;;35.17;19.63;;;7.70;99.90;;;;;;4974786;28;20038;-79
2021/11/12 02:05:27;;;;;;;28.63;18.23;;;7.70;99.90;;;;;;4974568;28;20376;-79
2021/11/12 02:07:55;;;;;;;34.78;19.63;;;7.60;99.90;;;;;;4973903;28;20430;-80
2021/11/12 02:10:25;;;;;;;33.50;19.50;;;7.60;99.90;;;;;;4972901;28;20054;-82
2021/11/12 02:13:09;;;;;;;28.95;18.25;;;7.50;99.90;;;;;;4956812;28;20039;-82
2021/11/12 02:15:40;;;;;;;32.22;19.05;;;7.50;99.90;;;;;;4956905;28;20074;-80
2021/11/12 02:18:14;;;;;;;31.15;17.48;;;7.50;99.90;;;;;;4974397;28;20051;-80
2021/11/12 02:20:51;;;;;;;28.92;17.60;;;7.30;99.90;;;;;;4974130;28;20401;-81
2021/11/12 02:23:19;;;;;;;31.42;18.23;;;7.50;99.90;;;;;;4972199;28;20053;-81
2021/11/12 02:25:46;;;;;;;31.25;18.50;;;7.50;99.90;;;;;;4972578;28;20057;-79
2021/11/12 02:28:15;;;;;;;35.50;20.48;;;7.40;99.90;;;;;;4955833;28;20045;-80
2021/11/12 02:30:48;;;;;;;32.10;19.30;;;7.40;99.90;;;;;;4973749;28;20047;-81
2021/11/12 02:33:18;;;;;;;42.05;21.00;;;7.50;99.90;;;;;;4956514;28;20043;-81
2021/11/12 02:36:03;;;;;;;39.65;22.05;;;7.50;99.90;;;;;;4988689;28;20062;-79
2021/11/12 02:38:33;;;;;;;39.63;21.55;;;7.40;99.90;;;;;;4988553;28;20449;-80
2021/11/12 02:41:00;;;;;;;31.30;20.13;;;7.30;99.90;;;;;;4973712;28;20417;-78
2021/11/12 02:43:27;;;;;;;36.38;20.63;;;7.10;99.90;;;;;;4988349;28;20122;-81
2021/11/12 02:45:57;;;;;;;34.03;20.20;;;7.20;99.90;;;;;;4973317;28;20447;-78
2021/11/12 02:48:25;;;;;;;37.67;22.48;;;7.30;99.90;;;;;;4973740;28;20102;-79
2021/11/12 02:50:52;;;;;;;30.20;19.58;;;7.30;99.90;;;;;;4973439;28;20074;-79
2021/11/12 02:53:20;;;;;;;33.50;20.08;;;7.30;99.90;;;;;;4973377;28;20457;-82
2021/11/12 02:55:48;;;;;;;34.38;21.17;;;7.00;99.90;;;;;;4973658;28;20125;-83
2021/11/12 02:58:15;;;;;;;29.70;19.13;;;7.00;99.90;;;;;;4988261;28;20071;-80
2021/11/12 03:00:44;;;;;;;34.60;21.55;;;7.00;99.90;;;;;;4972285;28;20042;-86
2021/11/12 03:03:12;;;;;;;35.22;20.60;;;7.00;99.90;;;;;;4974060;28;20046;-84
2021/11/12 03:05:39;;;;;;;35.65;21.13;;;7.00;99.90;;;;;;4973566;28;20062;-84
2021/11/12 03:08:07;;;;;;;31.13;19.23;;;6.90;99.90;;;;;;4955661;28;20148;-83
2021/11/12 03:10:34;;;;;;;31.27;19.38;;;6.90;99.90;;;;;;4940203;28;20129;-80
2021/11/12 03:13:02;;;;;;;27.33;19.25;;;6.90;99.90;;;;;;4973273;28;20039;-87
2021/11/12 03:15:30;;;;;;;28.30;18.27;;;7.00;99.90;;;;;;4973108;28;20047;-82
2021/11/12 03:17:58;;;;;;;31.30;18.23;;;7.00;99.90;;;;;;4955582;28;20121;-81
2021/11/12 03:20:28;;;;;;;29.30;18.27;;;6.90;99.90;;;;;;4965754;28;20063;-80
2021/11/12 03:23:01;;;;;;;28.23;18.52;;;6.90;99.90;;;;;;4952007;29;20410;-80
2021/11/12 03:26:26;;;;;;;33.78;18.85;;;6.90;99.90;;;;;;4953911;29;20071;-83
2021/11/12 03:29:10;;;;;;;31.50;18.42;;;7.00;99.90;;;;;;4931886;29;20062;-82
2021/11/12 05:11:37;;;;;;;23.17;13.38;;;6.10;99.90;;;;;;4936866;29;20049;-81
2021/11/12 05:13:56;;;;;;;22.20;13.35;;;6.10;99.90;;;;;;4936549;29;20071;-80
2021/11/12 05:44:26;;;;;;;25.08;14.15;;;6.20;99.90;;;;;;4936664;29;20114;-81
2021/11/12 05:57:32;;;;;;;29.80;17.40;;;6.90;99.90;;;;;;4934059;29;20056;-80
2021/11/12 05:59:59;;;;;;;21.70;14.63;;;6.80;99.90;;;;;;4935845;29;20036;-81
2021/11/12 06:02:26;;;;;;;25.08;14.88;;;6.50;99.90;;;;;;4846676;28;20040;-81
2021/11/12 06:04:54;;;;;;;30.75;16.95;;;6.70;99.90;;;;;;4934379;29;20056;-83
2021/11/12 06:07:22;;;;;;;25.25;16.33;;;7.00;99.90;;;;;;4935689;29;20046;-82
2021/11/12 06:09:50;;;;;;;24.42;15.65;;;6.90;99.90;;;;;;4935255;29;20079;-80
2021/11/12 06:12:17;;;;;;;29.00;17.65;;;6.90;99.90;;;;;;4935397;29;20126;-83
2021/11/12 06:14:44;;;;;;;33.83;20.85;;;6.80;99.90;;;;;;4934897;29;20081;-82
2021/11/12 06:17:12;;;;;;;24.95;15.00;;;6.70;99.90;;;;;;4935730;29;20046;-81
2021/11/12 06:19:40;;;;;;;23.80;12.85;;;6.70;99.90;;;;;;4950666;29;20035;-87
2021/11/12 06:22:08;;;;;;;21.52;12.85;;;6.70;99.90;;;;;;4936635;29;20052;-80
2021/11/12 06:24:36;;;;;;;20.50;13.75;;;6.70;99.90;;;;;;4935129;29;20047;-82
2021/11/12 06:27:06;;;;;;;21.25;13.50;;;6.80;99.90;;;;;;4936099;29;20055;-82
2021/11/12 06:29:35;;;;;;;22.52;13.27;;;7.00;99.90;;;;;;4936196;29;20048;-79
2021/11/12 06:32:03;;;;;;;17.98;12.32;;;7.10;99.90;;;;;;4934436;29;20051;-78
2021/11/12 06:34:31;;;;;;;23.17;15.20;;;7.20;99.90;;;;;;4934810;29;20039;-77
2021/11/12 06:36:58;;;;;;;36.78;21.88;;;7.50;99.90;;;;;;4934926;29;20071;-77
2021/11/12 06:39:25;;;;;;;42.13;24.35;;;7.70;99.90;;;;;;4935231;29;20066;-80
2021/11/12 06:41:55;;;;;;;23.92;14.45;;;7.80;99.90;;;;;;4935354;29;20380;-86
2021/11/12 06:44:39;;;;;;;18.70;12.32;;;7.60;99.90;;;;;;4934353;29;20036;-81
2021/11/12 06:49:56;;;;;;;17.52;11.32;;;7.30;99.90;;;;;;4935706;29;20395;-85
2021/11/12 06:52:26;;;;;;;19.58;11.82;;;7.50;99.90;;;;;;4935983;29;20064;-81
2021/11/12 06:54:55;;;;;;;17.93;11.57;;;7.90;99.90;;;;;;4936054;29;20448;-82
2021/11/12 06:57:23;;;;;;;17.15;11.55;;;8.10;99.90;;;;;;4936316;29;20055;-86
2021/11/12 06:59:50;;;;;;;17.35;11.30;;;8.10;99.90;;;;;;4935773;29;20039;-79
2021/11/12 07:02:20;;;;;;;16.98;11.52;;;8.10;99.90;;;;;;4935752;29;20080;-87
2021/11/12 07:04:48;;;;;;;21.27;10.98;;;8.30;99.90;;;;;;4939297;29;20051;-83
2021/11/12 07:07:16;;;;;;;20.50;11.15;;;8.40;99.90;;;;;;4954042;28;20560;-82
2021/11/12 07:09:46;;;;;;;16.83;11.80;;;8.70;99.90;;;;;;4952902;28;20122;-79
2021/11/12 07:12:15;;;;;;;18.27;12.05;;;8.90;99.90;;;;;;4953001;29;20047;-79
2021/11/12 07:14:43;;;;;;;19.33;12.35;;;9.00;99.90;;;;;;4968952;28;20055;-80
2021/11/12 07:17:11;;;;;;;16.73;12.23;;;9.00;99.90;;;;;;4972941;28;20097;-80
2021/11/12 07:19:39;;;;;;;19.27;12.32;;;9.10;99.90;;;;;;4971524;28;20059;-82
2021/11/12 07:22:07;;;;;;;24.02;13.02;;;9.20;99.90;;;;;;4957464;28;20047;-78
2021/11/12 07:24:34;;;;;;;20.98;12.93;;;9.30;99.90;;;;;;4952251;29;20036;-83
2021/11/12 07:27:02;;;;;;;23.83;14.55;;;9.60;99.90;;;;;;4951352;29;20485;-82
2021/11/12 07:29:31;;;;;;;21.65;14.52;;;9.50;99.90;;;;;;4951977;29;20044;-82
2021/11/12 07:31:58;;;;;;;19.98;14.38;;;9.60;99.90;;;;;;4952100;29;20035;-81
2021/11/12 07:34:28;;;;;;;22.63;13.40;;;9.60;99.90;;;;;;4951239;29;20404;-83
2021/11/12 07:37:10;;;;;;;26.77;15.73;;;9.70;99.90;;;;;;4953340;29;20039;-80
2021/11/12 07:39:48;;;;;;;25.83;14.88;;;10.10;99.90;;;;;;4936360;29;20506;-78
2021/11/12 07:47:22;;;;;;;24.73;14.80;;;10.90;99.90;;;;;;4953564;28;20118;-82
2021/11/12 07:49:55;;;;;;;24.08;16.02;;;10.60;99.90;;;;;;4953259;28;20047;-82
2021/11/12 07:52:27;;;;;;;27.35;16.40;;;10.50;99.90;;;;;;4952736;28;20121;-79
2021/11/12 07:54:56;;;;;;;27.40;15.65;;;10.50;99.90;;;;;;4952594;29;20071;-79
2021/11/12 07:57:25;;;;;;;27.25;16.98;;;10.50;99.90;;;;;;4952278;28;20122;-82
2021/11/12 07:59:53;;;;;;;24.58;15.88;;;10.40;99.90;;;;;;4965843;28;20122;-78
2021/11/12 08:02:20;;;;;;;26.80;17.15;;;10.50;99.90;;;;;;4971621;28;20054;-80
2021/11/12 08:04:50;;;;;;;26.92;17.48;;;10.40;99.90;;;;;;4972264;28;20038;-80
2021/11/12 08:07:18;;;;;;;34.55;17.52;;;10.40;99.90;;;;;;4972086;28;20422;-79
2021/11/12 08:13:02;;;;;;;28.10;17.08;;;10.80;99.90;;;;;;4971432;28;20586;-79
2021/11/12 08:18:03;;;;;;;24.48;16.85;;;11.10;99.90;;;;;;4971914;28;20057;-83
2021/11/12 08:20:42;;;;;;;26.50;17.25;;;11.10;99.90;;;;;;4972578;28;20118;-78
2021/11/12 08:23:46;;;;;;;30.17;19.33;;;11.40;99.90;;;;;;4976492;28;20051;-82
2021/11/12 08:26:31;;;;;;;27.15;17.05;;;11.40;99.90;;;;;;4976144;28;20113;-78
2021/11/12 08:32:43;;;;;;;32.20;18.73;;;11.60;99.90;;;;;;4973945;28;20053;-76
2021/11/12 08:42:58;;;;;;;33.88;18.90;;;11.20;99.90;;;;;;4957415;28;20387;-77
2021/11/12 08:45:31;;;;;;;30.92;19.48;;;11.30;99.90;;;;;;4957729;28;20050;-77
2021/11/12 08:48:03;;;;;;;35.80;19.10;;;11.50;99.90;;;;;;4975293;28;20402;-78
2021/11/12 08:50:30;;;;;;;30.88;19.42;;;11.50;99.90;;;;;;4975354;28;20039;-78
2021/11/12 08:53:05;;;;;;;30.95;19.65;;;11.50;99.90;;;;;;4975335;28;20117;-76
2021/11/12 08:55:35;;;;;;;31.45;18.65;;;11.60;99.90;;;;;;4974643;28;20121;-78
2021/11/12 08:58:04;;;;;;;43.47;20.53;;;11.90;99.90;;;;;;4974963;28;20070;-77
2021/11/12 09:00:31;;;;;;;28.67;19.38;;;12.00;99.90;;;;;;4968285;28;20089;-79
2021/11/12 09:02:59;;;;;;;34.30;20.05;;;12.40;99.90;;;;;;4965588;28;20038;-80
2021/11/12 09:05:27;;;;;;;33.70;19.17;;;13.00;99.90;;;;;;4979390;28;20117;-81
2021/11/12 09:07:55;;;;;;;33.17;19.38;;;13.60;99.90;;;;;;4971191;28;20045;-80
2021/11/12 09:10:25;;;;;;;28.17;18.80;;;13.70;99.90;;;;;;4968768;28;20410;-76
2021/11/12 09:12:59;;;;;;;37.17;20.33;;;13.50;99.90;;;;;;4956438;28;20463;-83
2021/11/12 09:15:30;;;;;;;28.98;19.00;;;12.80;99.90;;;;;;4954812;28;20443;-79
2021/11/12 09:18:01;;;;;;;29.60;17.70;;;13.10;99.90;;;;;;4963717;28;20046;-79
2021/11/12 09:20:29;;;;;;;31.23;17.50;;;12.80;99.90;;;;;;4965633;28;20578;-86
2021/11/12 09:22:59;;;;;;;28.38;16.75;;;13.10;99.90;;;;;;4963971;28;20043;-83
2021/11/12 09:25:26;;;;;;;29.23;18.05;;;13.40;99.90;;;;;;4965637;28;20046;-76
2021/11/12 09:27:54;;;;;;;27.45;16.30;;;13.30;99.90;;;;;;4970601;28;20030;-84
2021/11/12 09:30:24;;;;;;;25.23;16.63;;;13.90;99.90;;;;;;4962992;28;20043;-81
2021/11/12 09:32:54;;;;;;;24.92;15.75;;;13.80;99.90;;;;;;4961242;28;20502;-85
2021/11/12 09:35:22;;;;;;;24.13;14.73;;;13.80;99.90;;;;;;4966437;28;20065;-81
2021/11/12 09:37:51;;;;;;;28.08;15.57;;;13.80;99.90;;;;;;4972949;28;20382;-79
2021/11/12 09:40:20;;;;;;;25.50;14.73;;;13.60;99.90;;;;;;4973161;28;20045;-80
2021/11/12 09:42:48;;;;;;;22.85;14.50;;;13.90;99.90;;;;;;4952368;28;20479;-84
2021/11/12 09:45:17;;;;;;;23.92;14.73;;;14.20;99.30;;;;;;4965902;28;20053;-79
2021/11/12 09:47:45;;;;;;;23.60;14.13;;;14.50;98.70;;;;;;4957053;28;20122;-79
2021/11/12 09:50:17;;;;;;;23.80;14.38;;;14.40;98.00;;;;;;4973890;28;20137;-79
2021/11/12 09:52:46;;;;;;;22.38;13.82;;;14.90;97.30;;;;;;4974335;28;20043;-81
2021/11/12 09:55:14;;;;;;;26.02;16.63;;;14.50;97.50;;;;;;4956843;28;20622;-83
2021/11/12 09:57:43;;;;;;;23.02;14.73;;;14.70;97.80;;;;;;4969629;28;20094;-79
2021/11/12 10:00:14;;;;;;;22.02;14.18;;;15.30;97.50;;;;;;4963902;28;20449;-78
2021/11/12 10:02:45;;;;;;;20.98;13.73;;;15.60;96.20;;;;;;4959783;28;20118;-84
2021/11/12 10:05:12;;;;;;;;;;;15.90;95.80;;;;;;4946487;28;20074;-80
2021/11/12 10:07:40;;;;;;;21.08;13.63;;;16.20;94.50;;;;;;4963875;28;20289;-80
2021/11/12 10:10:16;;;;;;;23.00;14.18;;;16.30;93.60;;;;;;4962196;28;20126;-80
2021/11/12 10:12:51;;;;;;;20.10;13.25;;;16.40;93.20;;;;;;4964404;28;20074;-79
2021/11/12 10:15:29;;;;;;;22.17;14.25;;;16.30;92.70;;;;;;4965239;28;20061;-79
2021/11/12 10:18:07;;;;;;;19.27;13.68;;;16.30;92.70;;;;;;4963810;28;20431;-80
2021/11/12 10:20:35;;;;;;;23.13;15.23;;;16.70;92.50;;;;;;4961830;28;20046;-84
2021/11/12 10:23:16;;;;;;;22.05;13.63;;;16.70;92.60;;;;;;4963972;28;20050;-81
2021/11/12 10:26:00;;;;;;;24.48;14.48;;;16.60;91.60;;;;;;4963099;28;20050;-80
2021/11/12 10:28:36;;;;;;;25.05;14.00;;;15.90;92.90;;;;;;4945740;28;20391;-79
2021/11/12 10:31:24;;;;;;;22.90;14.65;;;16.40;91.90;;;;;;4967496;28;20039;-80
2021/11/12 10:33:52;;;;;;;19.35;12.50;;;16.90;90.60;;;;;;4949300;29;20056;-82
2021/11/12 10:36:21;;;;;;;25.20;13.27;;;17.00;89.50;;;;;;4956791;28;20039;-83
2021/11/12 10:38:51;;;;;;;22.73;12.02;;;16.60;89.70;;;;;;4963110;28;20053;-84
2021/11/12 10:41:22;;;;;;;20.80;12.88;;;16.20;91.00;;;;;;4962489;28;20531;-79
2021/11/12 10:43:51;;;;;;;20.80;12.70;;;16.20;90.70;;;;;;4961051;28;20035;-86
2021/11/12 10:46:36;;;;;;;22.65;12.25;;;16.20;89.80;;;;;;4964300;28;20047;-83
2021/11/12 10:49:29;;;;;;;21.08;11.75;;;16.30;89.80;;;;;;4963431;28;20383;-81
2021/11/12 10:52:00;;;;;;;21.10;12.18;;;17.00;88.80;;;;;;4968710;28;20047;-86
2021/11/12 10:54:52;;;;;;;16.13;11.38;;;16.90;86.80;;;;;;4972921;28;20035;-79
2021/11/12 10:57:35;;;;;;;22.65;11.60;;;16.60;88.80;;;;;;4957148;28;20044;-78
2021/11/12 11:00:07;;;;;;;15.65;10.98;;;16.70;88.20;;;;;;4953204;29;20070;-84
2021/11/12 11:02:39;;;;;;;17.45;10.18;;;16.70;86.60;;;;;;4934971;29;20529;-79
2021/11/12 11:05:11;;;;;;;17.67;11.18;;;17.20;84.40;;;;;;4957138;28;20382;-77
2021/11/12 11:07:39;;;;;;;17.73;10.02;;;17.50;83.60;;;;;;4963665;28;20489;-80
2021/11/12 11:10:21;;;;;;;21.80;11.40;;;17.90;83.10;;;;;;4952867;29;20592;-82
2021/11/12 11:12:49;;;;;;;17.25;10.80;;;17.70;81.10;;;;;;4955617;28;20055;-84
2021/11/12 11:15:20;;;;;;;20.77;12.05;;;17.70;82.10;;;;;;4965181;28;20495;-79
2021/11/12 11:18:18;;;;;;;18.60;10.30;;;17.50;82.00;;;;;;4962916;28;20062;-80
2021/11/12 11:24:06;;;;;;;14.43;9.30;;;17.80;80.80;;;;;;4959349;28;20055;-84
2021/11/12 11:26:44;;;;;;;15.90;8.93;;;18.20;80.30;;;;;;4962360;28;20135;-81
2021/11/12 11:29:21;;;;;;;15.52;9.63;;;18.10;78.20;;;;;;4961942;28;20461;-79
2021/11/12 11:31:51;;;;;;;19.92;10.13;;;17.50;79.80;;;;;;4962078;28;20047;-82
2021/11/12 11:34:18;;;;;;;16.50;9.35;;;17.40;81.00;;;;;;4960942;28;20045;-78
2021/11/12 11:36:46;;;;;;;16.50;9.25;;;17.00;82.30;;;;;;4936339;29;20055;-80
2021/11/12 11:39:16;;;;;;;15.55;8.45;;;17.40;81.30;;;;;;4953396;29;20101;-81
2021/11/12 11:41:44;;;;;;;15.60;10.15;;;17.40;81.70;;;;;;4957581;28;20061;-79
2021/11/12 11:44:16;;;;;;;14.85;9.70;;;17.20;83.90;;;;;;4972412;28;20150;-81
2021/11/12 11:46:46;;;;;;;15.00;9.38;;;17.30;83.80;;;;;;4972234;28;20047;-78
2021/11/12 11:49:19;;;;;;;18.33;10.00;;;17.60;82.50;;;;;;4973042;28;20482;-80
2021/11/12 11:51:55;;;;;;;18.02;9.65;;;17.60;82.70;;;;;;4971718;28;20051;-84
2021/11/12 11:54:25;;;;;;;15.18;9.40;;;17.70;82.50;;;;;;4972533;28;20035;-82
2021/11/12 11:56:56;;;;;;;17.75;9.73;;;17.80;81.20;;;;;;4975878;28;20035;-82
2021/11/12 11:59:32;;;;;;;27.73;9.80;;;17.70;81.80;;;;;;4991797;28;20465;-85
2021/11/12 12:02:00;;;;;;;15.32;9.85;;;17.50;81.30;;;;;;4976807;28;20050;-82
2021/11/12 12:04:57;;;;;;;15.07;9.80;;;17.60;81.60;;;;;;4977271;28;20039;-78
2021/11/12 12:07:30;;;;;;;13.77;9.05;;;17.50;82.80;;;;;;4974407;28;20686;-84
2021/11/12 12:10:14;;;;;;;14.05;8.77;;;17.20;83.20;;;;;;4977079;28;20043;-87
2021/11/12 12:12:47;;;;;;;15.35;9.52;;;17.30;84.20;;;;;;4977002;28;20125;-84
2021/11/12 12:15:31;;;;;;;21.08;10.40;;;16.60;85.10;;;;;;4953256;29;20503;-84
2021/11/12 12:18:12;;;;;;;13.27;9.82;;;16.70;86.80;;;;;;4936236;29;20465;-83
2021/11/12 12:21:05;;;;;;;16.77;10.43;;;17.00;86.10;;;;;;4935916;29;20363;-84
2021/11/12 13:25:34;;;;;;;14.35;8.00;;;16.90;80.40;;;;;;4936746;29;20035;-78
2021/11/12 13:28:18;;;;;;;14.38;8.27;;;17.30;80.00;;;;;;4936543;29;20395;-84
2021/11/12 13:31:10;;;;;;;13.52;8.45;;;17.60;78.00;;;;;;4936928;29;20054;-78
2021/11/12 13:33:55;;;;;;;15.38;8.15;;;18.00;76.90;;;;;;4936854;29;20515;-83
2021/11/12 13:36:34;;;;;;;11.70;7.97;;;18.10;76.40;;;;;;4933485;29;20044;-87
2021/11/12 13:39:02;;;;;;;14.75;7.57;;;17.90;76.50;;;;;;4936555;29;20122;-76
2021/11/12 13:41:35;;;;;;;12.07;7.40;;;18.00;76.10;;;;;;4936119;29;20047;-85
2021/11/12 13:44:09;;;;;;;11.52;7.68;;;17.60;76.60;;;;;;4936538;29;20048;-81
2021/11/12 13:46:55;;;;;;;11.88;7.72;;;17.60;77.60;;;;;;4936479;29;20036;-84
2021/11/12 13:49:34;;;;;;;14.27;7.88;;;17.40;78.70;;;;;;4936715;29;20474;-79
2021/11/12 13:52:09;;;;;;;14.52;7.72;;;17.10;80.00;;;;;;4935762;29;20043;-81
2021/11/12 13:54:43;;;;;;;18.10;8.35;;;17.00;81.30;;;;;;4935928;29;20058;-78
2021/11/12 13:57:15;;;;;;;13.82;7.60;;;16.70;82.00;;;;;;4936277;29;20051;-80
2021/11/12 14:00:10;;;;;;;14.85;9.15;;;16.30;82.10;;;;;;4936055;29;20044;-83
2021/11/12 14:02:55;;;;;;;16.95;8.85;;;16.10;82.70;;;;;;4935072;29;20083;-81
2021/11/12 14:05:22;;;;;;;14.18;8.48;;;16.30;82.20;;;;;;4935850;29;20047;-82
2021/11/12 14:08:01;;;;;;;15.35;8.30;;;16.70;81.90;;;;;;4936222;29;20040;-80
2021/11/12 14:10:34;;;;;;;16.50;8.65;;;16.70;81.90;;;;;;4935740;29;20127;-79
2021/11/12 14:13:05;;;;;;;16.73;9.00;;;16.80;82.90;;;;;;4939473;28;20048;-77
2021/11/12 14:15:45;;;;;;;18.00;8.40;;;16.90;83.30;;;;;;4973766;28;20054;-81
2021/11/12 14:21:09;;;;;;;13.52;8.57;;;17.30;82.90;;;;;;4973541;28;20131;-79
2021/11/12 14:35:48;;;;;;;14.48;8.98;;;15.40;86.50;;;;;;4973559;28;20042;-78
2021/11/12 14:46:26;;;;;;;15.13;9.50;;;15.10;89.30;;;;;;4973394;28;20391;-78
2021/11/12 14:49:33;;;;;;;15.75;9.15;;;15.10;90.00;;;;;;4973910;28;20458;-79
2021/11/12 14:52:09;;;;;;;16.65;10.02;;;15.00;90.30;;;;;;4973440;28;20046;-85
2021/11/12 14:54:45;;;;;;;17.10;10.25;;;15.00;90.40;;;;;;4974121;28;20053;-83
2021/11/12 14:57:30;;;;;;;18.75;11.25;;;14.90;90.70;;;;;;4973118;28;20039;-79
2021/11/12 15:00:06;;;;;;;18.08;11.05;;;14.70;91.20;;;;;;4973116;28;20047;-84
2021/11/12 15:02:37;;;;;;;23.63;12.70;;;14.70;91.60;;;;;;4956309;28;20070;-76
2021/11/12 15:05:05;;;;;;;20.95;11.13;;;14.60;91.70;;;;;;4972834;28;20046;-78
2021/11/12 15:07:39;;;;;;;20.88;12.27;;;14.60;91.90;;;;;;4973590;28;20074;-78
2021/11/12 15:10:24;;;;;;;24.38;12.73;;;14.40;92.30;;;;;;4973312;28;20043;-82
2021/11/12 15:12:55;;;;;;;17.90;11.80;;;14.20;93.20;;;;;;4973307;28;20051;-83
2021/11/12 15:15:23;;;;;;;26.25;12.02;;;14.10;93.70;;;;;;4973997;28;20050;-84
2021/11/12 15:17:53;;;;;;;22.00;12.35;;;14.10;94.10;;;;;;4973693;28;20042;-86
2021/11/12 15:20:22;;;;;;;29.57;12.90;;;14.00;94.60;;;;;;4973995;28;20498;-85
2021/11/12 15:25:41;;;;;;;25.98;13.10;;;13.80;95.70;;;;;;4954536;29;20067;-80
2021/11/12 15:28:24;;;;;;;24.70;13.52;;;13.70;96.50;;;;;;4953385;28;20454;-79
2021/11/12 15:33:19;;;;;;;23.95;13.63;;;13.50;98.50;;;;;;4953361;29;20039;-81
2021/11/12 15:35:48;;;;;;;23.02;12.95;;;13.50;99.40;;;;;;4953361;29;20042;-77
2021/11/12 15:41:09;;;;;;;27.92;15.05;;;13.40;99.90;;;;;;4953769;29;20447;-82
2021/11/12 15:43:41;;;;;;;33.80;19.10;;;13.50;99.90;;;;;;4953688;29;20048;-78
2021/11/12 15:46:20;;;;;;;35.50;19.77;;;13.30;99.90;;;;;;4953435;29;20041;-77
2021/11/12 15:48:48;;;;;;;36.35;18.33;;;13.20;99.90;;;;;;4953637;29;20047;-80
2021/11/12 15:59:34;;;;;;;43.55;20.70;;;13.10;99.90;;;;;;4954061;29;20061;-78
2021/11/12 16:05:06;;;;;;;42.42;22.55;;;12.90;99.90;;;;;;4953630;29;20101;-78
2021/11/12 16:10:37;;;;;;;38.67;21.20;;;12.80;99.90;;;;;;4953482;29;20150;-80
2021/11/12 16:20:39;;;;;;;45.17;25.40;;;12.80;99.90;;;;;;4955062;28;20526;-81
2021/11/12 16:25:38;;;;;;;40.10;21.77;;;12.90;99.90;;;;;;4955386;28;20051;-80
2021/11/12 16:28:06;;;;;;;36.85;20.95;;;12.90;99.90;;;;;;4972754;28;20094;-82
2021/11/12 16:30:35;;;;;;;41.35;21.80;;;12.80;99.90;;;;;;4972986;28;20065;-83
2021/11/12 16:33:06;;;;;;;37.53;20.98;;;12.70;99.90;;;;;;4971490;28;20117;-82
2021/11/12 16:36:06;;;;;;;;;;;;;;;;;;;;;
2021/11/12 16:38:37;;;;;;;46.88;25.35;;;12.50;99.90;;;;;;4955358;28;20446;-83
2021/11/12 16:41:12;;;;;;;49.05;25.92;;;12.40;99.90;;;;;;4971963;28;20058;-81
2021/11/12 16:49:34;;;;;;;41.28;23.92;;;12.50;99.90;;;;;;4975491;28;20042;-77
2021/11/12 16:55:11;;;;;;;;;;;12.50;99.90;;;;;;4964058;28;20078;-76
2021/11/12 16:57:50;;;;;;;60.45;32.15;;;12.60;99.90;;;;;;4974046;28;20017;-86
2021/11/12 17:02:52;;;;;;;69.90;37.75;;;12.30;99.90;;;;;;4951818;28;20047;-81
2021/11/12 17:05:27;;;;;;;65.13;38.20;;;12.20;99.90;;;;;;4953743;28;20418;-80
2021/11/12 17:08:09;;;;;;;72.78;38.78;;;12.20;99.90;;;;;;4954206;29;20043;-79
2021/11/12 17:46:50;;;;;;;61.22;35.38;;;10.60;99.90;;;;;;4918230;29;20040;-84
2021/11/12 18:03:14;;;;;;;52.53;32.45;;;10.90;99.90;;;;;;4914625;29;19919;-81
2021/11/12 18:25:34;;;;;;;58.80;35.97;;;11.00;99.90;;;;;;4899476;29;20504;-77
2021/11/12 21:47:53;;;;;;;42.95;25.15;;;8.30;99.90;;;;;;4916207;29;20084;-79
2021/11/12 21:50:20;;;;;;;40.83;23.65;;;8.10;99.90;;;;;;4900524;29;20206;-79
2021/11/12 21:52:48;;;;;;;36.15;23.50;;;8.20;99.90;;;;;;4900327;29;20044;-81
2021/11/12 21:55:15;;;;;;;43.35;24.42;;;8.30;99.90;;;;;;4916398;29;20407;-82
2021/11/12 21:57:43;;;;;;;41.65;23.95;;;8.20;99.90;;;;;;4916974;29;20119;-84
2021/11/12 22:00:11;;;;;;;41.67;24.65;;;8.10;99.90;;;;;;4917284;29;20059;-78
2021/11/12 22:02:39;;;;;;;42.80;25.13;;;8.10;99.90;;;;;;4917089;29;20044;-81
2021/11/12 22:05:08;;;;;;;38.08;24.50;;;8.30;99.90;;;;;;4917077;29;20048;-80
2021/11/12 22:07:36;;;;;;;39.03;23.85;;;8.30;99.90;;;;;;4900274;29;20056;-80
2021/11/12 22:10:06;;;;;;;40.53;24.90;;;8.10;99.90;;;;;;4917262;29;20055;-81
2021/11/12 22:12:34;;;;;;;39.30;24.30;;;7.90;99.90;;;;;;4915606;29;20074;-79
2021/11/12 22:15:03;;;;;;;41.67;24.15;;;8.00;99.90;;;;;;4884414;29;20052;-78
2021/11/12 22:17:32;;;;;;;35.08;23.58;;;8.00;99.90;;;;;;4887947;29;20052;-80
2021/11/12 22:20:04;;;;;;;40.20;24.20;;;8.20;99.90;;;;;;4898002;29;20042;-77
2021/11/12 22:22:32;;;;;;;43.67;22.52;;;8.30;99.90;;;;;;4897978;29;20076;-80
2021/11/12 22:25:00;;;;;;;37.25;21.95;;;8.40;99.90;;;;;;4881428;29;20052;-82
2021/11/12 22:27:29;;;;;;;33.00;22.63;;;8.30;99.90;;;;;;4897912;29;20049;-81
2021/11/12 22:29:56;;;;;;;46.70;26.67;;;8.30;99.90;;;;;;4881020;29;20060;-79
2021/11/12 22:32:24;;;;;;;50.15;28.98;;;8.30;99.90;;;;;;4897478;29;20048;-79
2021/11/12 22:34:53;;;;;;;36.30;22.80;;;8.20;99.90;;;;;;4897683;29;20506;-79
2021/11/12 22:37:20;;;;;;;33.30;21.70;;;8.00;99.90;;;;;;4897034;29;20097;-79
2021/11/12 22:39:51;;;;;;;26.75;18.83;;;7.90;99.90;;;;;;4881315;29;20077;-81
2021/11/12 22:42:19;;;;;;;31.00;19.40;;;7.90;99.90;;;;;;4880914;29;20052;-82
2021/11/12 22:44:46;;;;;;;29.20;20.67;;;7.80;99.90;;;;;;4881735;29;20091;-80
2021/11/12 22:47:14;;;;;;;32.88;20.38;;;7.90;99.90;;;;;;4897547;29;20052;-83
2021/11/12 22:49:42;;;;;;;35.22;21.38;;;7.70;99.90;;;;;;4897506;29;20044;-81
2021/11/12 22:52:09;;;;;;;35.47;22.08;;;7.70;99.90;;;;;;4880714;29;20128;-80
2021/11/12 22:54:37;;;;;;;30.92;20.48;;;7.50;99.90;;;;;;4897494;29;20512;-85
2021/11/12 22:57:05;;;;;;;37.58;21.50;;;7.70;99.90;;;;;;4896320;29;20041;-83